createdAt,value
2017-06-16T00:00:03.448Z,940.47
2017-06-16T00:00:31.526Z,940.45
2017-06-16T00:00:59.694Z,940.48
2017-06-16T00:01:27.756Z,940.48
2017-06-16T00:01:55.899Z,940.44
2017-06-16T00:02:24.034Z,940.46
2017-06-16T00:02:52.081Z,940.45
2017-06-16T00:03:20.214Z,940.47
2017-06-16T00:03:48.345Z,940.49
2017-06-16T00:04:16.477Z,940.51
2017-06-16T00:04:44.511Z,940.51
2017-06-16T00:05:12.579Z,940.5
2017-06-16T00:05:40.698Z,940.51
2017-06-16T00:06:08.822Z,940.49
2017-06-16T00:06:36.952Z,940.52
2017-06-16T00:07:04.983Z,940.48
2017-06-16T00:07:32.949Z,940.46
2017-06-16T00:08:00.997Z,940.5
2017-06-16T00:08:29.153Z,940.51
2017-06-16T00:08:57.304Z,940.52
2017-06-16T00:09:25.254Z,940.51
2017-06-16T00:09:53.317Z,940.48
2017-06-16T00:10:21.350Z,940.48
2017-06-16T00:10:49.499Z,940.47
2017-06-16T00:11:17.663Z,940.48
2017-06-16T00:11:45.813Z,940.48
2017-06-16T00:12:13.953Z,940.51
2017-06-16T00:12:42.110Z,940.51
2017-06-16T00:13:10.152Z,940.5
2017-06-16T00:13:38.242Z,940.53
2017-06-16T00:14:06.307Z,940.53
2017-06-16T00:14:34.494Z,940.51
2017-06-16T00:15:02.646Z,940.56
2017-06-16T00:15:30.769Z,940.54
2017-06-16T00:15:58.828Z,940.58
2017-06-16T00:16:26.973Z,940.54
2017-06-16T00:16:55.130Z,940.54
2017-06-16T00:17:23.171Z,940.54
2017-06-16T00:17:51.343Z,940.52
2017-06-16T00:18:19.508Z,940.56
2017-06-16T00:18:47.569Z,940.52
2017-06-16T00:19:15.716Z,940.53
2017-06-16T00:19:43.845Z,940.56
2017-06-16T00:20:11.879Z,940.6
2017-06-16T00:20:40.035Z,940.59
2017-06-16T00:21:08.211Z,940.61
2017-06-16T00:21:36.337Z,940.63
2017-06-16T00:22:04.427Z,940.64
2017-06-16T00:22:32.539Z,940.65
2017-06-16T00:23:00.598Z,940.67
2017-06-16T00:23:28.747Z,940.63
2017-06-16T00:23:56.883Z,940.66
2017-06-16T00:24:25.053Z,940.65
2017-06-16T00:24:53.193Z,940.66
2017-06-16T00:25:21.342Z,940.68
2017-06-16T00:25:49.407Z,940.64
2017-06-16T00:26:17.456Z,940.63
2017-06-16T00:26:45.573Z,940.65
2017-06-16T00:27:13.632Z,940.68
2017-06-16T00:27:41.767Z,940.65
2017-06-16T00:28:09.909Z,940.64
2017-06-16T00:28:38.049Z,940.66
2017-06-16T00:29:06.200Z,940.64
2017-06-16T00:29:34.343Z,940.65
2017-06-16T00:30:02.484Z,940.68
2017-06-16T00:30:30.632Z,940.61
2017-06-16T00:30:58.751Z,940.6
2017-06-16T00:31:26.895Z,940.57
2017-06-16T00:31:54.945Z,940.6
2017-06-16T00:32:23.107Z,940.62
2017-06-16T00:32:51.235Z,940.62
2017-06-16T00:33:19.361Z,940.6
2017-06-16T00:33:47.488Z,940.6
2017-06-16T00:34:15.642Z,940.57
2017-06-16T00:34:43.759Z,940.6
2017-06-16T00:35:11.730Z,940.59
2017-06-16T00:35:39.857Z,940.6
2017-06-16T00:36:08.005Z,940.64
2017-06-16T00:36:36.162Z,940.61
2017-06-16T00:37:04.352Z,940.58
2017-06-16T00:37:32.510Z,940.66
2017-06-16T00:38:00.533Z,940.64
2017-06-16T00:38:28.392Z,940.65
2017-06-16T00:38:56.429Z,940.63
2017-06-16T00:39:24.590Z,940.65
2017-06-16T00:39:52.714Z,940.64
2017-06-16T00:40:20.829Z,940.66
2017-06-16T00:40:48.986Z,940.63
2017-06-16T00:41:17.110Z,940.68
2017-06-16T00:41:45.255Z,940.68
2017-06-16T00:42:13.301Z,940.69
2017-06-16T00:42:41.475Z,940.69
2017-06-16T00:43:09.593Z,940.71
2017-06-16T00:43:37.727Z,940.71
2017-06-16T00:44:05.784Z,940.71
2017-06-16T00:44:33.836Z,940.74
2017-06-16T00:45:01.971Z,940.69
2017-06-16T00:45:30.029Z,940.69
2017-06-16T00:45:58.180Z,940.74
2017-06-16T00:46:26.216Z,940.7
2017-06-16T00:46:54.353Z,940.73
2017-06-16T00:47:22.497Z,940.71
2017-06-16T00:47:50.451Z,940.69
2017-06-16T00:48:18.604Z,940.72
2017-06-16T00:48:46.731Z,940.74
2017-06-16T00:49:14.869Z,940.72
2017-06-16T00:49:43.033Z,940.73
2017-06-16T00:50:11.103Z,940.73
2017-06-16T00:50:39.246Z,940.78
2017-06-16T00:51:07.394Z,940.75
2017-06-16T00:51:35.546Z,940.75
2017-06-16T00:52:03.688Z,940.75
2017-06-16T00:52:31.635Z,940.76
2017-06-16T00:52:59.568Z,940.75
2017-06-16T00:53:27.590Z,940.79
2017-06-16T00:53:55.541Z,940.76
2017-06-16T00:54:23.675Z,940.76
2017-06-16T00:54:51.809Z,940.72
2017-06-16T00:55:19.954Z,940.74
2017-06-16T00:55:47.975Z,940.76
2017-06-16T00:56:16.124Z,940.77
2017-06-16T00:56:44.173Z,940.78
2017-06-16T00:57:12.308Z,940.76
2017-06-16T00:57:40.418Z,940.8
2017-06-16T00:58:08.560Z,940.76
2017-06-16T00:58:36.509Z,940.79
2017-06-16T00:59:04.687Z,940.79
2017-06-16T00:59:32.806Z,940.81
2017-06-16T01:00:00.964Z,940.83
2017-06-16T01:00:29.909Z,940.8
2017-06-16T01:00:58.048Z,940.85
2017-06-16T01:01:26.177Z,940.8
2017-06-16T01:01:54.325Z,940.84
2017-06-16T01:02:22.478Z,940.82
2017-06-16T01:02:50.598Z,940.83
2017-06-16T01:03:18.725Z,940.82
2017-06-16T01:03:46.850Z,940.86
2017-06-16T01:04:15.005Z,940.84
2017-06-16T01:04:43.151Z,940.86
2017-06-16T01:05:11.299Z,940.83
2017-06-16T01:05:39.343Z,940.82
2017-06-16T01:06:07.411Z,940.79
2017-06-16T01:06:35.468Z,940.79
2017-06-16T01:07:03.623Z,940.79
2017-06-16T01:07:31.578Z,940.77
2017-06-16T01:07:59.703Z,940.8
2017-06-16T01:08:27.856Z,940.77
2017-06-16T01:08:55.893Z,940.74
2017-06-16T01:09:24.048Z,940.75
2017-06-16T01:09:52.173Z,940.82
2017-06-16T01:10:20.342Z,940.78
2017-06-16T01:10:48.469Z,940.77
2017-06-16T01:11:16.413Z,940.74
2017-06-16T01:11:44.600Z,940.76
2017-06-16T01:12:12.740Z,940.74
2017-06-16T01:12:40.902Z,940.75
2017-06-16T01:13:08.953Z,940.78
2017-06-16T01:13:37.193Z,940.76
2017-06-16T01:14:05.358Z,940.73
2017-06-16T01:14:33.394Z,940.76
2017-06-16T01:15:01.561Z,940.77
2017-06-16T01:15:29.712Z,940.78
2017-06-16T01:15:57.886Z,940.75
2017-06-16T01:16:25.920Z,940.75
2017-06-16T01:16:54.092Z,940.73
2017-06-16T01:17:22.158Z,940.76
2017-06-16T01:17:50.292Z,940.78
2017-06-16T01:18:18.437Z,940.77
2017-06-16T01:18:46.512Z,940.76
2017-06-16T01:19:14.664Z,940.76
2017-06-16T01:19:42.731Z,940.75
2017-06-16T01:20:10.835Z,940.77
2017-06-16T01:20:38.872Z,940.76
2017-06-16T01:21:07.014Z,940.76
2017-06-16T01:21:35.175Z,940.76
2017-06-16T01:22:03.205Z,940.73
2017-06-16T01:22:31.135Z,940.74
2017-06-16T01:22:59.269Z,940.75
2017-06-16T01:23:27.305Z,940.73
2017-06-16T01:23:55.348Z,940.78
2017-06-16T01:24:23.408Z,940.73
2017-06-16T01:24:51.556Z,940.77
2017-06-16T01:25:19.611Z,940.7
2017-06-16T01:25:47.745Z,940.7
2017-06-16T01:26:15.862Z,940.7
2017-06-16T01:26:44.045Z,940.68
2017-06-16T01:27:12.096Z,940.72
2017-06-16T01:27:40.242Z,940.68
2017-06-16T01:28:08.386Z,940.65
2017-06-16T01:28:36.523Z,940.67
2017-06-16T01:29:04.668Z,940.66
2017-06-16T01:29:32.723Z,940.68
2017-06-16T01:30:00.787Z,940.66
2017-06-16T01:30:28.814Z,940.67
2017-06-16T01:30:56.940Z,940.65
2017-06-16T01:31:25.085Z,940.66
2017-06-16T01:31:53.218Z,940.67
2017-06-16T01:32:21.386Z,940.63
2017-06-16T01:32:49.517Z,940.66
2017-06-16T01:33:17.678Z,940.64
2017-06-16T01:33:45.790Z,940.64
2017-06-16T01:34:13.841Z,940.65
2017-06-16T01:34:41.977Z,940.62
2017-06-16T01:35:10.125Z,940.69
2017-06-16T01:35:38.280Z,940.67
2017-06-16T01:36:06.246Z,940.67
2017-06-16T01:36:34.297Z,940.62
2017-06-16T01:37:02.433Z,940.6
2017-06-16T01:37:30.618Z,940.62
2017-06-16T01:37:58.739Z,940.61
2017-06-16T01:38:26.905Z,940.55
2017-06-16T01:38:54.950Z,940.57
2017-06-16T01:39:23.121Z,940.56
2017-06-16T01:39:51.278Z,940.54
2017-06-16T01:40:19.427Z,940.52
2017-06-16T01:40:47.566Z,940.53
2017-06-16T01:41:15.590Z,940.56
2017-06-16T01:41:43.758Z,940.57
2017-06-16T01:42:11.718Z,940.56
2017-06-16T01:42:39.855Z,940.56
2017-06-16T01:43:08.031Z,940.55
2017-06-16T01:43:36.065Z,940.52
2017-06-16T01:44:04.227Z,940.53
2017-06-16T01:44:32.386Z,940.54
2017-06-16T01:45:00.545Z,940.55
2017-06-16T01:45:28.672Z,940.56
2017-06-16T01:45:56.812Z,940.56
2017-06-16T01:46:24.953Z,940.57
2017-06-16T01:46:53.088Z,940.54
2017-06-16T01:47:21.217Z,940.55
2017-06-16T01:47:49.259Z,940.6
2017-06-16T01:48:17.312Z,940.57
2017-06-16T01:48:45.430Z,940.55
2017-06-16T01:49:13.586Z,940.58
2017-06-16T01:49:41.736Z,940.58
2017-06-16T01:50:09.891Z,940.58
2017-06-16T01:50:37.860Z,940.6
2017-06-16T01:51:05.903Z,940.61
2017-06-16T01:51:34.071Z,940.59
2017-06-16T01:52:02.185Z,940.6
2017-06-16T01:52:30.309Z,940.56
2017-06-16T01:52:58.459Z,940.56
2017-06-16T01:53:26.500Z,940.58
2017-06-16T01:53:54.577Z,940.6
2017-06-16T01:54:22.713Z,940.6
2017-06-16T01:54:50.787Z,940.55
2017-06-16T01:55:18.823Z,940.57
2017-06-16T01:55:46.977Z,940.54
2017-06-16T01:56:15.105Z,940.54
2017-06-16T01:56:43.253Z,940.53
2017-06-16T01:57:11.328Z,940.54
2017-06-16T01:57:39.468Z,940.53
2017-06-16T01:58:07.583Z,940.54
2017-06-16T01:58:35.733Z,940.5
2017-06-16T01:59:03.874Z,940.53
2017-06-16T01:59:31.908Z,940.53
2017-06-16T01:59:59.944Z,940.51
2017-06-16T02:00:28.082Z,940.5
2017-06-16T02:00:56.210Z,940.5
2017-06-16T02:01:24.348Z,940.51
2017-06-16T02:01:52.378Z,940.52
2017-06-16T02:02:20.522Z,940.54
2017-06-16T02:02:48.384Z,940.47
2017-06-16T02:03:16.513Z,940.49
2017-06-16T02:03:44.553Z,940.48
2017-06-16T02:04:12.687Z,940.52
2017-06-16T02:04:40.834Z,940.5
2017-06-16T02:05:08.799Z,940.5
2017-06-16T02:05:36.857Z,940.51
2017-06-16T02:06:05.009Z,940.52
2017-06-16T02:06:33.148Z,940.49
2017-06-16T02:07:01.205Z,940.48
2017-06-16T02:07:29.297Z,940.49
2017-06-16T02:07:57.353Z,940.5
2017-06-16T02:08:25.481Z,940.48
2017-06-16T02:08:53.618Z,940.48
2017-06-16T02:09:21.773Z,940.49
2017-06-16T02:09:49.824Z,940.5
2017-06-16T02:10:17.962Z,940.5
2017-06-16T02:10:46.098Z,940.48
2017-06-16T02:11:14.152Z,940.5
2017-06-16T02:11:42.211Z,940.52
2017-06-16T02:12:10.244Z,940.51
2017-06-16T02:12:38.391Z,940.51
2017-06-16T02:13:06.360Z,940.51
2017-06-16T02:13:34.547Z,940.53
2017-06-16T02:14:02.682Z,940.56
2017-06-16T02:14:30.822Z,940.54
2017-06-16T02:14:58.764Z,940.47
2017-06-16T02:15:26.845Z,940.53
2017-06-16T02:15:54.888Z,940.56
2017-06-16T02:16:22.911Z,940.54
2017-06-16T02:16:51.065Z,940.56
2017-06-16T02:17:19.144Z,940.54
2017-06-16T02:17:47.196Z,940.57
2017-06-16T02:18:15.339Z,940.54
2017-06-16T02:18:43.360Z,940.53
2017-06-16T02:19:11.507Z,940.52
2017-06-16T02:19:39.644Z,940.52
2017-06-16T02:20:07.589Z,940.54
2017-06-16T02:20:35.744Z,940.55
2017-06-16T02:21:03.898Z,940.51
2017-06-16T02:21:31.868Z,940.52
2017-06-16T02:22:00.005Z,940.55
2017-06-16T02:22:28.141Z,940.56
2017-06-16T02:22:56.286Z,940.58
2017-06-16T02:23:24.472Z,940.56
2017-06-16T02:23:52.629Z,940.6
2017-06-16T02:24:20.670Z,940.61
2017-06-16T02:24:48.807Z,940.62
2017-06-16T02:25:16.963Z,940.65
2017-06-16T02:25:45.022Z,940.66
2017-06-16T02:26:13.134Z,940.67
2017-06-16T02:26:41.267Z,940.67
2017-06-16T02:27:09.326Z,940.63
2017-06-16T02:27:37.367Z,940.66
2017-06-16T02:28:05.410Z,940.69
2017-06-16T02:28:33.560Z,940.63
2017-06-16T02:29:01.738Z,940.63
2017-06-16T02:29:29.881Z,940.64
2017-06-16T02:29:58.005Z,940.64
2017-06-16T02:30:25.966Z,940.66
2017-06-16T02:30:54.022Z,940.66
2017-06-16T02:31:22.168Z,940.64
2017-06-16T02:31:50.311Z,940.66
2017-06-16T02:32:18.453Z,940.62
2017-06-16T02:32:46.604Z,940.63
2017-06-16T02:33:14.704Z,940.61
2017-06-16T02:33:42.851Z,940.64
2017-06-16T02:34:10.999Z,940.62
2017-06-16T02:34:39.147Z,940.61
2017-06-16T02:35:07.258Z,940.65
2017-06-16T02:35:35.397Z,940.64
2017-06-16T02:36:03.541Z,940.6
2017-06-16T02:36:31.594Z,940.6
2017-06-16T02:36:59.751Z,940.59
2017-06-16T02:37:27.884Z,940.6
2017-06-16T02:37:56.032Z,940.64
2017-06-16T02:38:24.191Z,940.57
2017-06-16T02:38:52.334Z,940.56
2017-06-16T02:39:20.455Z,940.6
2017-06-16T02:39:48.506Z,940.6
2017-06-16T02:40:16.542Z,940.62
2017-06-16T02:40:44.596Z,940.6
2017-06-16T02:41:12.623Z,940.6
2017-06-16T02:41:40.761Z,940.61
2017-06-16T02:42:08.894Z,940.6
2017-06-16T02:42:36.924Z,940.62
2017-06-16T02:43:05.074Z,940.61
2017-06-16T02:43:33.142Z,940.67
2017-06-16T02:44:01.031Z,940.64
2017-06-16T02:44:29.167Z,940.61
2017-06-16T02:44:57.235Z,940.63
2017-06-16T02:45:25.304Z,940.63
2017-06-16T02:45:53.472Z,940.61
2017-06-16T02:46:21.632Z,940.62
2017-06-16T02:46:49.656Z,940.64
2017-06-16T02:47:17.760Z,940.63
2017-06-16T02:47:45.894Z,940.68
2017-06-16T02:48:14.041Z,940.64
2017-06-16T02:48:42.163Z,940.64
2017-06-16T02:49:10.220Z,940.64
2017-06-16T02:49:38.353Z,940.66
2017-06-16T02:50:06.476Z,940.64
2017-06-16T02:50:34.528Z,940.64
2017-06-16T02:51:02.683Z,940.65
2017-06-16T02:51:30.633Z,940.64
2017-06-16T02:51:58.801Z,940.64
2017-06-16T02:52:26.861Z,940.62
2017-06-16T02:52:54.917Z,940.58
2017-06-16T02:53:23.057Z,940.6
2017-06-16T02:53:51.202Z,940.57
2017-06-16T02:54:19.346Z,940.59
2017-06-16T02:54:47.480Z,940.59
2017-06-16T02:55:15.701Z,940.61
2017-06-16T02:55:43.848Z,940.6
2017-06-16T02:56:12.007Z,940.59
2017-06-16T02:56:40.167Z,940.56
2017-06-16T02:57:08.312Z,940.58
2017-06-16T02:57:36.435Z,940.58
2017-06-16T02:58:04.577Z,940.59
2017-06-16T02:58:32.717Z,940.58
2017-06-16T02:59:00.778Z,940.61
2017-06-16T02:59:28.911Z,940.59
2017-06-16T02:59:57.044Z,940.58
2017-06-16T03:00:25.076Z,940.57
2017-06-16T03:00:53.248Z,940.57
2017-06-16T03:01:21.370Z,940.59
2017-06-16T03:01:49.549Z,940.6
2017-06-16T03:02:17.606Z,940.59
2017-06-16T03:02:45.661Z,940.57
2017-06-16T03:03:13.810Z,940.58
2017-06-16T03:03:41.959Z,940.56
2017-06-16T03:04:10.105Z,940.55
2017-06-16T03:04:38.071Z,940.57
2017-06-16T03:05:06.201Z,940.53
2017-06-16T03:05:34.234Z,940.56
2017-06-16T03:06:02.397Z,940.49
2017-06-16T03:06:30.550Z,940.52
2017-06-16T03:06:58.693Z,940.53
2017-06-16T03:07:26.846Z,940.49
2017-06-16T03:07:54.916Z,940.5
2017-06-16T03:08:22.975Z,940.5
2017-06-16T03:08:51.130Z,940.47
2017-06-16T03:09:19.183Z,940.52
2017-06-16T03:09:47.337Z,940.52
2017-06-16T03:10:15.456Z,940.52
2017-06-16T03:10:43.499Z,940.53
2017-06-16T03:11:11.638Z,940.54
2017-06-16T03:11:39.788Z,940.52
2017-06-16T03:12:07.735Z,940.51
2017-06-16T03:12:35.769Z,940.54
2017-06-16T03:13:03.894Z,940.56
2017-06-16T03:13:32.049Z,940.56
2017-06-16T03:14:00.073Z,940.55
2017-06-16T03:14:28.202Z,940.58
2017-06-16T03:14:56.324Z,940.55
2017-06-16T03:15:24.458Z,940.55
2017-06-16T03:15:52.590Z,940.59
2017-06-16T03:16:20.727Z,940.57
2017-06-16T03:16:48.919Z,940.56
2017-06-16T03:17:17.024Z,940.52
2017-06-16T03:17:45.146Z,940.53
2017-06-16T03:18:13.189Z,940.52
2017-06-16T03:18:41.238Z,940.5
2017-06-16T03:19:09.294Z,940.54
2017-06-16T03:19:37.333Z,940.52
2017-06-16T03:20:05.489Z,940.51
2017-06-16T03:20:33.546Z,940.51
2017-06-16T03:21:01.604Z,940.53
2017-06-16T03:21:29.642Z,940.54
2017-06-16T03:21:57.761Z,940.54
2017-06-16T03:22:25.823Z,940.51
2017-06-16T03:22:53.861Z,940.54
2017-06-16T03:23:22.000Z,940.53
2017-06-16T03:23:49.857Z,940.55
2017-06-16T03:24:17.918Z,940.55
2017-06-16T03:24:46.040Z,940.56
2017-06-16T03:25:14.178Z,940.56
2017-06-16T03:25:42.350Z,940.51
2017-06-16T03:26:10.359Z,940.56
2017-06-16T03:26:38.501Z,940.51
2017-06-16T03:27:06.553Z,940.52
2017-06-16T03:27:34.681Z,940.52
2017-06-16T03:28:02.825Z,940.52
2017-06-16T03:28:30.976Z,940.54
2017-06-16T03:28:59.037Z,940.54
2017-06-16T03:29:27.167Z,940.47
2017-06-16T03:29:55.329Z,940.5
2017-06-16T03:30:23.456Z,940.46
2017-06-16T03:30:51.520Z,940.47
2017-06-16T03:31:19.648Z,940.48
2017-06-16T03:31:47.796Z,940.46
2017-06-16T03:32:15.833Z,940.47
2017-06-16T03:32:43.990Z,940.45
2017-06-16T03:33:12.139Z,940.46
2017-06-16T03:33:40.176Z,940.42
2017-06-16T03:34:08.218Z,940.44
2017-06-16T03:34:36.350Z,940.44
2017-06-16T03:35:04.488Z,940.42
2017-06-16T03:35:32.614Z,940.4
2017-06-16T03:36:00.633Z,940.44
2017-06-16T03:36:28.677Z,940.47
2017-06-16T03:36:56.799Z,940.4
2017-06-16T03:37:24.842Z,940.41
2017-06-16T03:37:52.955Z,940.44
2017-06-16T03:38:21.102Z,940.44
2017-06-16T03:38:49.039Z,940.43
2017-06-16T03:39:16.988Z,940.42
2017-06-16T03:39:45.113Z,940.41
2017-06-16T03:40:13.265Z,940.44
2017-06-16T03:40:41.410Z,940.42
2017-06-16T03:41:09.454Z,940.42
2017-06-16T03:41:37.603Z,940.4
2017-06-16T03:42:05.665Z,940.41
2017-06-16T03:42:33.680Z,940.4
2017-06-16T03:43:01.839Z,940.41
2017-06-16T03:43:29.996Z,940.39
2017-06-16T03:43:58.127Z,940.41
2017-06-16T03:44:26.263Z,940.36
2017-06-16T03:44:54.303Z,940.37
2017-06-16T03:45:22.433Z,940.37
2017-06-16T03:45:50.582Z,940.38
2017-06-16T03:46:18.613Z,940.35
2017-06-16T03:46:46.673Z,940.36
2017-06-16T03:47:14.815Z,940.35
2017-06-16T03:47:42.865Z,940.32
2017-06-16T03:48:10.908Z,940.32
2017-06-16T03:48:38.937Z,940.33
2017-06-16T03:49:07.079Z,940.33
2017-06-16T03:49:35.125Z,940.3
2017-06-16T03:50:03.255Z,940.3
2017-06-16T03:50:31.403Z,940.31
2017-06-16T03:50:59.544Z,940.27
2017-06-16T03:51:27.717Z,940.27
2017-06-16T03:51:55.857Z,940.31
2017-06-16T03:52:24.007Z,940.29
2017-06-16T03:52:52.153Z,940.29
2017-06-16T03:53:20.223Z,940.28
2017-06-16T03:53:48.381Z,940.29
2017-06-16T03:54:16.438Z,940.3
2017-06-16T03:54:44.556Z,940.33
2017-06-16T03:55:12.679Z,940.33
2017-06-16T03:55:40.800Z,940.32
2017-06-16T03:56:08.944Z,940.29
2017-06-16T03:56:37.087Z,940.29
2017-06-16T03:57:05.131Z,940.32
2017-06-16T03:57:33.315Z,940.32
2017-06-16T03:58:01.359Z,940.33
2017-06-16T03:58:29.506Z,940.32
2017-06-16T03:58:57.578Z,940.33
2017-06-16T03:59:25.690Z,940.32
2017-06-16T03:59:53.761Z,940.32
2017-06-16T04:00:21.896Z,940.32
2017-06-16T04:00:52.844Z,940.28
2017-06-16T04:01:20.885Z,940.32
2017-06-16T04:01:49.030Z,940.32
2017-06-16T04:02:17.070Z,940.29
2017-06-16T04:02:45.231Z,940.31
2017-06-16T04:03:13.378Z,940.27
2017-06-16T04:03:41.506Z,940.27
2017-06-16T04:04:09.543Z,940.27
2017-06-16T04:04:37.689Z,940.26
2017-06-16T04:05:05.806Z,940.23
2017-06-16T04:05:33.971Z,940.22
2017-06-16T04:06:02.117Z,940.21
2017-06-16T04:06:30.266Z,940.2
2017-06-16T04:06:58.231Z,940.21
2017-06-16T04:07:26.278Z,940.18
2017-06-16T04:07:54.333Z,940.14
2017-06-16T04:08:22.465Z,940.15
2017-06-16T04:08:50.398Z,940.1
2017-06-16T04:09:18.564Z,940.14
2017-06-16T04:09:46.729Z,940.08
2017-06-16T04:10:14.675Z,940.09
2017-06-16T04:10:42.806Z,940.08
2017-06-16T04:11:10.819Z,940.12
2017-06-16T04:11:38.971Z,940.1
2017-06-16T04:12:07.160Z,940.09
2017-06-16T04:12:35.295Z,940.07
2017-06-16T04:13:03.255Z,940.01
2017-06-16T04:13:31.390Z,940.08
2017-06-16T04:13:59.400Z,940.07
2017-06-16T04:14:27.529Z,940.05
2017-06-16T04:14:55.474Z,940.05
2017-06-16T04:15:23.529Z,940.1
2017-06-16T04:15:51.690Z,940.05
2017-06-16T04:16:19.837Z,940.09
2017-06-16T04:16:47.864Z,940.08
2017-06-16T04:17:15.881Z,940.08
2017-06-16T04:17:44.020Z,940.11
2017-06-16T04:18:12.066Z,940.11
2017-06-16T04:18:40.194Z,940.1
2017-06-16T04:19:08.333Z,940.1
2017-06-16T04:19:36.489Z,940.08
2017-06-16T04:20:04.627Z,940.08
2017-06-16T04:20:32.773Z,940.06
2017-06-16T04:21:00.923Z,940.09
2017-06-16T04:21:29.059Z,940.13
2017-06-16T04:21:57.222Z,940.11
2017-06-16T04:22:25.379Z,940.08
2017-06-16T04:22:53.411Z,940.09
2017-06-16T04:23:21.554Z,940.12
2017-06-16T04:23:49.687Z,940.12
2017-06-16T04:24:17.842Z,940.15
2017-06-16T04:24:46.020Z,940.11
2017-06-16T04:25:14.252Z,940.11
2017-06-16T04:25:42.366Z,940.12
2017-06-16T04:26:10.508Z,940.13
2017-06-16T04:26:38.568Z,940.12
2017-06-16T04:27:06.732Z,940.11
2017-06-16T04:27:34.807Z,940.07
2017-06-16T04:28:02.950Z,940.09
2017-06-16T04:28:30.984Z,940.07
2017-06-16T04:28:59.122Z,940.03
2017-06-16T04:29:27.254Z,940.06
2017-06-16T04:29:55.392Z,940.01
2017-06-16T04:30:23.450Z,940.02
2017-06-16T04:30:51.603Z,940.01
2017-06-16T04:31:19.763Z,940.03
2017-06-16T04:31:47.898Z,940.01
2017-06-16T04:32:15.846Z,939.99
2017-06-16T04:32:43.987Z,939.96
2017-06-16T04:33:12.138Z,939.97
2017-06-16T04:33:40.194Z,939.98
2017-06-16T04:34:08.332Z,939.93
2017-06-16T04:34:36.469Z,939.94
2017-06-16T04:35:04.606Z,939.94
2017-06-16T04:35:32.632Z,939.94
2017-06-16T04:36:00.566Z,939.95
2017-06-16T04:36:28.715Z,939.91
2017-06-16T04:36:56.836Z,939.95
2017-06-16T04:37:24.896Z,939.89
2017-06-16T04:37:53.014Z,939.95
2017-06-16T04:38:21.172Z,939.95
2017-06-16T04:38:49.298Z,939.9
2017-06-16T04:39:17.447Z,939.87
2017-06-16T04:39:45.605Z,939.9
2017-06-16T04:40:13.662Z,939.89
2017-06-16T04:40:41.813Z,939.88
2017-06-16T04:41:09.887Z,939.88
2017-06-16T04:41:38.053Z,939.9
2017-06-16T04:42:06.198Z,939.89
2017-06-16T04:42:34.353Z,939.87
2017-06-16T04:43:02.496Z,939.91
2017-06-16T04:43:30.622Z,939.89
2017-06-16T04:43:58.765Z,939.86
2017-06-16T04:44:26.778Z,939.85
2017-06-16T04:44:54.803Z,939.86
2017-06-16T04:45:22.952Z,939.85
2017-06-16T04:45:51.082Z,939.93
2017-06-16T04:46:19.232Z,939.88
2017-06-16T04:46:47.382Z,939.87
2017-06-16T04:47:15.496Z,939.84
2017-06-16T04:47:43.631Z,939.83
2017-06-16T04:48:11.775Z,939.88
2017-06-16T04:48:39.842Z,939.85
2017-06-16T04:49:07.906Z,939.88
2017-06-16T04:49:35.937Z,939.87
2017-06-16T04:50:04.112Z,939.88
2017-06-16T04:50:32.252Z,939.87
2017-06-16T04:51:00.374Z,939.87
2017-06-16T04:51:28.502Z,939.86
2017-06-16T04:51:56.540Z,939.88
2017-06-16T04:52:24.574Z,939.87
2017-06-16T04:52:52.724Z,939.87
2017-06-16T04:53:20.888Z,939.89
2017-06-16T04:53:48.940Z,939.88
2017-06-16T04:54:16.968Z,939.9
2017-06-16T04:54:45.112Z,939.86
2017-06-16T04:55:13.255Z,939.88
2017-06-16T04:55:41.414Z,939.88
2017-06-16T04:56:09.568Z,939.91
2017-06-16T04:56:37.707Z,939.87
2017-06-16T04:57:05.875Z,939.85
2017-06-16T04:57:34.018Z,939.85
2017-06-16T04:58:02.143Z,939.81
2017-06-16T04:58:30.209Z,939.84
2017-06-16T04:58:58.350Z,939.85
2017-06-16T04:59:26.501Z,939.83
2017-06-16T04:59:54.450Z,939.83
2017-06-16T05:00:22.479Z,939.83
2017-06-16T05:00:50.631Z,939.85
2017-06-16T05:01:18.703Z,939.77
2017-06-16T05:01:46.874Z,939.83
2017-06-16T05:02:14.904Z,939.83
2017-06-16T05:02:43.057Z,939.87
2017-06-16T05:03:11.211Z,939.85
2017-06-16T05:03:39.373Z,939.82
2017-06-16T05:04:07.516Z,939.81
2017-06-16T05:04:35.681Z,939.87
2017-06-16T05:05:03.829Z,939.84
2017-06-16T05:05:31.976Z,939.85
2017-06-16T05:06:00.113Z,939.85
2017-06-16T05:06:28.243Z,939.84
2017-06-16T05:06:56.388Z,939.81
2017-06-16T05:07:24.452Z,939.83
2017-06-16T05:07:52.567Z,939.83
2017-06-16T05:08:20.495Z,939.82
2017-06-16T05:08:48.623Z,939.82
2017-06-16T05:09:16.737Z,939.81
2017-06-16T05:09:44.773Z,939.78
2017-06-16T05:10:12.827Z,939.78
2017-06-16T05:10:40.768Z,939.77
2017-06-16T05:11:08.910Z,939.82
2017-06-16T05:11:37.055Z,939.8
2017-06-16T05:12:05.211Z,939.78
2017-06-16T05:12:33.365Z,939.84
2017-06-16T05:13:01.480Z,939.81
2017-06-16T05:13:29.525Z,939.8
2017-06-16T05:13:57.705Z,939.83
2017-06-16T05:14:25.869Z,939.85
2017-06-16T05:14:54.021Z,939.84
2017-06-16T05:15:22.076Z,939.81
2017-06-16T05:15:50.206Z,939.84
2017-06-16T05:16:18.244Z,939.82
2017-06-16T05:16:46.374Z,939.85
2017-06-16T05:17:14.513Z,939.86
2017-06-16T05:17:42.653Z,939.85
2017-06-16T05:18:10.687Z,939.84
2017-06-16T05:18:38.831Z,939.84
2017-06-16T05:19:06.972Z,939.83
2017-06-16T05:19:34.890Z,939.82
2017-06-16T05:20:03.054Z,939.8
2017-06-16T05:20:31.166Z,939.78
2017-06-16T05:20:59.312Z,939.8
2017-06-16T05:21:27.475Z,939.79
2017-06-16T05:21:55.604Z,939.78
2017-06-16T05:22:23.748Z,939.79
2017-06-16T05:22:51.892Z,939.77
2017-06-16T05:23:20.028Z,939.77
2017-06-16T05:23:47.992Z,939.75
2017-06-16T05:24:16.020Z,939.7
2017-06-16T05:24:44.068Z,939.69
2017-06-16T05:25:12.214Z,939.71
2017-06-16T05:25:40.361Z,939.65
2017-06-16T05:26:08.541Z,939.64
2017-06-16T05:26:36.503Z,939.66
2017-06-16T05:27:04.635Z,939.65
2017-06-16T05:27:32.736Z,939.63
2017-06-16T05:28:00.855Z,939.6
2017-06-16T05:28:29.009Z,939.61
2017-06-16T05:28:57.180Z,939.63
2017-06-16T05:29:25.303Z,939.6
2017-06-16T05:29:53.417Z,939.58
2017-06-16T05:30:21.486Z,939.63
2017-06-16T05:30:49.625Z,939.64
2017-06-16T05:31:17.756Z,939.65
2017-06-16T05:31:45.800Z,939.65
2017-06-16T05:32:13.825Z,939.65
2017-06-16T05:32:41.970Z,939.63
2017-06-16T05:33:10.118Z,939.6
2017-06-16T05:33:38.171Z,939.67
2017-06-16T05:34:06.221Z,939.63
2017-06-16T05:34:34.365Z,939.64
2017-06-16T05:35:02.522Z,939.65
2017-06-16T05:35:30.654Z,939.64
2017-06-16T05:35:58.736Z,939.66
2017-06-16T05:36:26.900Z,939.66
2017-06-16T05:36:55.049Z,939.64
2017-06-16T05:37:23.188Z,939.65
2017-06-16T05:37:51.314Z,939.65
2017-06-16T05:38:19.266Z,939.68
2017-06-16T05:38:47.367Z,939.66
2017-06-16T05:39:15.524Z,939.69
2017-06-16T05:39:43.680Z,939.69
2017-06-16T05:40:11.812Z,939.68
2017-06-16T05:40:39.974Z,939.7
2017-06-16T05:41:08.034Z,939.67
2017-06-16T05:41:36.203Z,939.64
2017-06-16T05:42:04.345Z,939.65
2017-06-16T05:42:32.487Z,939.59
2017-06-16T05:43:00.640Z,939.61
2017-06-16T05:43:28.800Z,939.6
2017-06-16T05:43:56.919Z,939.59
2017-06-16T05:44:25.060Z,939.58
2017-06-16T05:44:53.213Z,939.57
2017-06-16T05:45:21.262Z,939.58
2017-06-16T05:45:49.433Z,939.59
2017-06-16T05:46:17.546Z,939.56
2017-06-16T05:46:45.596Z,939.56
2017-06-16T05:47:16.782Z,939.54
2017-06-16T05:47:44.897Z,939.57
2017-06-16T05:48:13.038Z,939.6
2017-06-16T05:48:41.104Z,939.56
2017-06-16T05:49:09.213Z,939.55
2017-06-16T05:49:37.336Z,939.54
2017-06-16T05:50:05.513Z,939.55
2017-06-16T05:50:33.561Z,939.56
2017-06-16T05:51:01.693Z,939.55
2017-06-16T05:51:29.831Z,939.53